createdAt,value
2022-10-31T00:00:49.356Z,3.00
2022-10-31T00:03:17.824Z,2.77
2022-10-31T00:05:47.500Z,1.70
2022-10-31T00:08:17.171Z,2.30
2022-10-31T00:10:46.475Z,4.30
2022-10-31T00:13:16.009Z,1.50
2022-10-31T00:15:44.065Z,1.33
2022-10-31T00:18:12.502Z,1.97
2022-10-31T00:20:41.165Z,1.40
2022-10-31T00:23:09.567Z,1.70
2022-10-31T00:25:40.246Z,1.93
2022-10-31T00:28:09.679Z,2.80
2022-10-31T00:30:37.749Z,1.30
2022-10-31T00:33:06.222Z,1.60
2022-10-31T00:35:34.696Z,2.00
2022-10-31T00:38:02.716Z,1.60
2022-10-31T00:40:30.767Z,1.77
2022-10-31T00:43:00.265Z,2.30
2022-10-31T00:45:28.502Z,1.13
2022-10-31T00:47:56.667Z,1.23
2022-10-31T00:50:24.822Z,1.93
2022-10-31T00:52:53.021Z,1.30
2022-10-31T00:55:21.099Z,1.17
2022-10-31T00:57:49.287Z,1.60
2022-10-31T01:00:19.174Z,1.43
2022-10-31T01:02:47.835Z,1.30
2022-10-31T01:05:16.348Z,1.57
2022-10-31T01:07:46.122Z,1.40
2022-10-31T01:10:14.143Z,1.30
2022-10-31T01:12:43.515Z,1.30
2022-10-31T01:15:13.252Z,1.43
2022-10-31T01:17:42.732Z,1.40
2022-10-31T01:20:14.609Z,1.30
2022-10-31T01:22:42.798Z,1.73
2022-10-31T01:25:11.666Z,1.93
2022-10-31T01:27:39.633Z,1.73
2022-10-31T01:30:09.793Z,1.83
2022-10-31T01:32:37.775Z,1.83
2022-10-31T01:35:07.635Z,1.50
2022-10-31T01:37:35.716Z,1.60
2022-10-31T01:40:03.926Z,1.87
2022-10-31T01:42:32.052Z,1.87
2022-10-31T01:45:01.818Z,1.67
2022-10-31T01:47:36.154Z,1.53
2022-10-31T01:50:08.822Z,1.60
2022-10-31T01:52:39.744Z,2.97
2022-10-31T01:55:14.366Z,1.63
2022-10-31T01:57:43.980Z,1.80
2022-10-31T02:00:13.519Z,1.40
2022-10-31T02:02:42.285Z,1.13
2022-10-31T02:05:15.262Z,1.53
2022-10-31T02:07:46.643Z,1.20
2022-10-31T02:10:14.940Z,1.37
2022-10-31T02:12:43.318Z,1.33
2022-10-31T02:15:12.166Z,1.33
2022-10-31T02:17:41.614Z,1.70
2022-10-31T02:20:17.812Z,1.33
2022-10-31T02:23:04.451Z,1.77
2022-10-31T02:25:54.007Z,1.80
2022-10-31T02:28:36.950Z,1.53
2022-10-31T02:31:19.395Z,2.50
2022-10-31T02:33:51.577Z,1.10
2022-10-31T02:36:47.854Z,1.47
2022-10-31T02:39:21.276Z,1.87
2022-10-31T02:41:59.468Z,1.73
2022-10-31T02:44:31.636Z,2.07
2022-10-31T02:47:03.627Z,1.70
2022-10-31T02:49:36.174Z,1.50
2022-10-31T02:52:04.143Z,1.20
2022-10-31T02:54:33.322Z,2.13
2022-10-31T02:57:04.404Z,1.73
2022-10-31T02:59:33.563Z,1.97
2022-10-31T03:02:31.773Z,1.90
2022-10-31T03:05:24.954Z,2.90
2022-10-31T03:07:59.395Z,1.40
2022-10-31T03:10:33.801Z,1.97
2022-10-31T03:13:05.546Z,1.97
2022-10-31T03:15:35.999Z,1.47
2022-10-31T03:18:07.986Z,1.80
2022-10-31T03:20:40.330Z,3.67
2022-10-31T03:23:12.770Z,1.80
2022-10-31T03:25:41.800Z,1.73
2022-10-31T03:28:11.726Z,1.60
2022-10-31T03:30:42.990Z,1.60
2022-10-31T03:33:15.211Z,1.97
2022-10-31T03:35:45.173Z,2.13
2022-10-31T03:38:13.934Z,1.37
2022-10-31T03:40:43.183Z,1.27
2022-10-31T03:43:15.259Z,1.67
2022-10-31T03:45:47.100Z,1.10
2022-10-31T03:48:18.355Z,2.70
2022-10-31T03:50:52.741Z,1.27
2022-10-31T03:53:25.262Z,2.23
2022-10-31T03:55:55.727Z,1.73
2022-10-31T03:58:27.552Z,2.20
2022-10-31T04:00:56.855Z,1.60
2022-10-31T04:03:27.781Z,1.27
2022-10-31T04:06:00.864Z,2.13
2022-10-31T04:08:35.753Z,1.27
2022-10-31T04:11:05.285Z,1.80
2022-10-31T04:13:35.925Z,2.70
2022-10-31T04:16:12.681Z,1.37
2022-10-31T04:18:45.704Z,1.43
2022-10-31T04:21:13.806Z,1.60
2022-10-31T04:23:41.838Z,3.13
2022-10-31T04:26:17.243Z,1.47
2022-10-31T04:28:45.690Z,1.30
2022-10-31T04:31:17.175Z,1.33
2022-10-31T04:33:48.470Z,1.30
2022-10-31T04:36:16.542Z,1.73
2022-10-31T04:38:44.588Z,2.00
2022-10-31T04:41:25.811Z,1.80
2022-10-31T04:44:02.523Z,1.30
2022-10-31T04:46:30.944Z,2.00
2022-10-31T04:49:01.496Z,1.93
2022-10-31T04:51:29.508Z,1.20
2022-10-31T04:53:57.872Z,1.37
2022-10-31T04:56:28.919Z,1.70
2022-10-31T04:59:02.372Z,1.37
2022-10-31T05:01:39.940Z,1.63
2022-10-31T05:04:09.429Z,1.60
2022-10-31T05:06:37.891Z,1.10
2022-10-31T05:09:06.219Z,1.60
2022-10-31T05:11:34.262Z,1.40
2022-10-31T05:14:14.595Z,2.80
2022-10-31T05:17:20.850Z,1.57
2022-10-31T05:20:20.995Z,1.23
2022-10-31T05:23:07.608Z,1.73
2022-10-31T05:25:35.592Z,1.30
2022-10-31T05:28:06.022Z,1.60
2022-10-31T05:30:35.517Z,1.03
2022-10-31T05:33:05.048Z,1.90
2022-10-31T05:35:52.823Z,1.27
2022-10-31T05:38:26.861Z,1.37
2022-10-31T05:40:58.591Z,1.40
2022-10-31T05:43:27.218Z,1.50
2022-10-31T05:45:55.834Z,7.63
2022-10-31T05:48:43.762Z,1.60
2022-10-31T05:51:35.719Z,1.50
2022-10-31T05:54:05.345Z,2.00
2022-10-31T05:56:33.414Z,1.53
2022-10-31T05:59:01.963Z,1.43
2022-10-31T06:01:30.070Z,1.60
2022-10-31T06:04:01.035Z,1.40
2022-10-31T06:06:29.099Z,3.23
2022-10-31T06:08:58.576Z,1.50
2022-10-31T06:11:27.605Z,1.37
2022-10-31T06:14:04.846Z,1.40
2022-10-31T06:16:44.166Z,2.00
2022-10-31T06:19:32.700Z,1.30
2022-10-31T06:22:01.074Z,1.63
2022-10-31T06:24:31.528Z,2.33
2022-10-31T06:27:22.658Z,1.60
2022-10-31T06:29:50.665Z,1.33
2022-10-31T06:32:33.149Z,2.13
2022-10-31T06:35:01.120Z,1.50
2022-10-31T06:37:29.193Z,2.20
2022-10-31T06:40:06.217Z,1.30
2022-10-31T06:42:47.360Z,2.30
2022-10-31T06:45:15.632Z,3.73
2022-10-31T06:48:16.490Z,2.07
2022-10-31T06:51:04.958Z,1.43
2022-10-31T06:53:33.994Z,1.10
2022-10-31T06:56:04.330Z,2.20
2022-10-31T06:58:37.555Z,2.13
2022-10-31T07:01:10.682Z,1.50
2022-10-31T07:03:38.781Z,1.50
2022-10-31T07:06:07.402Z,2.17
2022-10-31T07:08:35.450Z,1.30
2022-10-31T07:11:04.940Z,1.70
2022-10-31T07:13:33.768Z,1.50
2022-10-31T07:16:09.011Z,2.77
2022-10-31T07:18:38.176Z,2.03
2022-10-31T07:21:07.012Z,1.83
2022-10-31T07:23:35.161Z,1.80
2022-10-31T07:26:39.736Z,2.20
2022-10-31T07:29:07.822Z,2.00
2022-10-31T07:31:35.856Z,2.03
2022-10-31T07:34:10.928Z,1.70
2022-10-31T07:36:38.876Z,2.47
2022-10-31T07:39:07.284Z,1.47
2022-10-31T07:41:36.863Z,2.53
2022-10-31T07:44:06.545Z,3.07
2022-10-31T07:46:52.907Z,2.27
2022-10-31T07:49:59.242Z,3.10
2022-10-31T07:52:45.959Z,3.03
2022-10-31T07:55:46.286Z,2.20
2022-10-31T07:58:16.401Z,2.87
2022-10-31T08:00:47.358Z,2.37
2022-10-31T08:03:20.845Z,2.40
2022-10-31T08:06:08.130Z,2.30
2022-10-31T08:08:54.548Z,1.70
2022-10-31T08:11:24.111Z,2.03
2022-10-31T08:13:52.129Z,2.10
2022-10-31T08:16:22.178Z,3.20
2022-10-31T08:18:57.886Z,2.93
2022-10-31T08:21:25.896Z,1.73
2022-10-31T08:23:53.867Z,2.23
2022-10-31T08:26:25.014Z,2.90
2022-10-31T08:28:56.615Z,2.80
2022-10-31T08:31:33.496Z,2.93
2022-10-31T08:34:21.187Z,2.70
2022-10-31T08:37:07.828Z,4.77
2022-10-31T08:39:41.681Z,2.37
2022-10-31T08:42:09.714Z,2.27
2022-10-31T08:44:37.742Z,3.47
2022-10-31T08:47:07.333Z,2.10
2022-10-31T08:49:36.263Z,2.97
2022-10-31T08:52:04.740Z,2.27
2022-10-31T08:54:37.640Z,2.30
2022-10-31T08:57:25.597Z,2.30
2022-10-31T08:59:54.665Z,2.77
2022-10-31T09:02:43.135Z,2.47
2022-10-31T09:05:11.183Z,2.40
2022-10-31T09:07:39.292Z,2.70
2022-10-31T09:10:08.034Z,3.97
2022-10-31T09:12:38.432Z,2.60
2022-10-31T09:15:24.862Z,3.17
2022-10-31T09:18:08.628Z,3.13
2022-10-31T09:20:47.336Z,3.80
2022-10-31T09:23:17.413Z,2.37
2022-10-31T09:25:50.190Z,3.77
2022-10-31T09:28:30.544Z,3.53
2022-10-31T09:31:02.578Z,3.33
2022-10-31T09:33:50.004Z,2.50
2022-10-31T09:36:40.733Z,5.07
2022-10-31T09:39:15.765Z,2.43
2022-10-31T09:42:02.170Z,3.87
2022-10-31T09:44:40.760Z,2.50
2022-10-31T09:47:19.013Z,3.50
2022-10-31T09:50:13.405Z,3.77
2022-10-31T09:52:45.835Z,2.80
2022-10-31T09:55:17.289Z,2.30
2022-10-31T09:57:46.436Z,4.63
2022-10-31T10:00:18.820Z,4.43
2022-10-31T10:02:50.029Z,2.50
2022-10-31T10:05:23.104Z,4.47
2022-10-31T10:07:57.595Z,3.63
2022-10-31T10:10:59.587Z,3.17
2022-10-31T10:13:59.836Z,3.37
2022-10-31T10:16:42.413Z,3.20
2022-10-31T10:19:22.366Z,2.77
2022-10-31T10:21:58.230Z,3.17
2022-10-31T10:24:40.224Z,3.77
2022-10-31T10:27:23.572Z,3.43
2022-10-31T10:29:53.531Z,3.10
2022-10-31T10:32:24.639Z,2.63
2022-10-31T10:34:54.711Z,3.07
2022-10-31T10:37:39.578Z,2.63
2022-10-31T10:40:10.719Z,3.40
2022-10-31T10:42:56.995Z,3.50
2022-10-31T10:45:42.299Z,2.87
2022-10-31T10:48:16.762Z,5.80
2022-10-31T10:50:49.717Z,2.37
2022-10-31T10:53:36.451Z,7.43
2022-10-31T10:56:14.226Z,6.43
2022-10-31T10:58:43.535Z,4.30
2022-10-31T11:04:37.804Z,4.53
2022-10-31T11:07:09.134Z,4.03
2022-10-31T11:09:39.368Z,5.10
2022-10-31T11:12:10.857Z,7.40
2022-10-31T11:14:46.175Z,3.30
2022-10-31T11:17:23.076Z,3.10
2022-10-31T11:20:02.084Z,5.80
2022-10-31T11:22:30.134Z,16.70
2022-10-31T11:24:59.546Z,4.67
2022-10-31T11:27:28.489Z,6.33
2022-10-31T11:30:07.037Z,5.07
2022-10-31T11:32:35.168Z,5.27
2022-10-31T11:35:04.704Z,3.67
2022-10-31T11:37:36.358Z,2.63
2022-10-31T11:40:08.036Z,10.03
2022-10-31T11:42:40.315Z,4.10
2022-10-31T11:45:16.719Z,4.43
2022-10-31T11:47:46.519Z,3.67
2022-10-31T11:50:21.218Z,2.73
2022-10-31T11:52:51.323Z,4.47
2022-10-31T11:55:33.637Z,3.90
2022-10-31T11:58:01.951Z,5.30
2022-10-31T12:00:31.984Z,6.33
2022-10-31T12:03:17.355Z,3.90
2022-10-31T12:05:46.574Z,5.13
2022-10-31T12:08:15.400Z,4.57
2022-10-31T12:10:52.556Z,4.13
2022-10-31T12:13:34.870Z,4.60
2022-10-31T12:16:07.111Z,3.30
2022-10-31T12:18:51.611Z,4.63
2022-10-31T12:21:28.698Z,3.33
2022-10-31T12:24:06.027Z,3.07
2022-10-31T12:26:42.760Z,4.00
2022-10-31T12:29:24.321Z,4.37
2022-10-31T12:32:01.729Z,4.37
2022-10-31T12:34:49.466Z,5.40
2022-10-31T12:37:26.434Z,3.67
2022-10-31T12:40:04.137Z,5.00
2022-10-31T12:42:46.058Z,4.33
2022-10-31T12:45:36.042Z,4.13
2022-10-31T12:48:16.641Z,4.40
2022-10-31T12:50:54.346Z,3.07
2022-10-31T12:53:32.361Z,3.30
2022-10-31T12:56:11.793Z,5.17
2022-10-31T12:58:46.076Z,8.10
2022-10-31T13:01:18.277Z,2.87
2022-10-31T13:03:50.832Z,4.40
2022-10-31T13:06:22.508Z,7.30
2022-10-31T13:08:53.386Z,2.90
2022-10-31T13:11:24.351Z,2.87
2022-10-31T13:13:59.571Z,7.50
2022-10-31T13:16:31.293Z,2.83
2022-10-31T13:19:04.874Z,3.43
2022-10-31T13:21:38.091Z,2.83
2022-10-31T13:24:10.723Z,4.50
2022-10-31T13:26:41.007Z,2.53
2022-10-31T13:29:19.356Z,2.83
2022-10-31T13:31:47.437Z,2.90
2022-10-31T13:34:24.206Z,3.17
2022-10-31T13:36:58.158Z,3.03
2022-10-31T13:39:34.377Z,2.70
2022-10-31T13:42:06.423Z,3.30
2022-10-31T13:44:38.726Z,3.47
2022-10-31T13:47:24.479Z,4.03
2022-10-31T13:49:55.636Z,3.60
2022-10-31T13:52:27.353Z,4.20
2022-10-31T13:54:59.018Z,3.97
2022-10-31T13:57:34.555Z,3.77
2022-10-31T14:00:08.856Z,3.00
2022-10-31T14:02:48.627Z,4.30
2022-10-31T14:05:24.524Z,3.27
2022-10-31T14:07:53.705Z,2.93
2022-10-31T14:10:24.982Z,4.70
2022-10-31T14:12:53.130Z,2.50
2022-10-31T14:15:23.726Z,4.00
2022-10-31T14:17:54.207Z,4.87
2022-10-31T14:20:37.115Z,2.77
2022-10-31T14:23:36.762Z,3.63
2022-10-31T14:26:37.714Z,3.53
2022-10-31T14:29:27.589Z,2.70
2022-10-31T14:31:59.539Z,2.60
2022-10-31T14:34:32.039Z,2.63
2022-10-31T14:37:23.571Z,2.73
2022-10-31T14:40:02.873Z,3.83
2022-10-31T14:42:42.308Z,3.77
2022-10-31T14:45:23.283Z,6.33
2022-10-31T14:48:07.042Z,2.90
2022-10-31T14:50:44.999Z,3.47
2022-10-31T14:53:17.018Z,2.97
2022-10-31T14:55:47.976Z,2.97
2022-10-31T14:58:21.442Z,6.27
2022-10-31T15:00:50.301Z,3.93
2022-10-31T15:03:25.920Z,3.10
2022-10-31T15:05:55.428Z,3.50
2022-10-31T15:08:55.941Z,3.40
2022-10-31T15:11:25.710Z,3.70
2022-10-31T15:13:55.029Z,3.83
2022-10-31T15:16:25.190Z,4.30
2022-10-31T15:18:59.147Z,3.67
2022-10-31T15:21:29.401Z,4.70
2022-10-31T15:23:58.995Z,3.20
2022-10-31T15:26:31.471Z,3.67
2022-10-31T15:29:01.225Z,2.70
2022-10-31T15:31:29.242Z,3.87
2022-10-31T15:34:01.927Z,4.20
2022-10-31T15:36:33.300Z,5.70
2022-10-31T15:39:04.047Z,3.80
2022-10-31T15:41:34.974Z,3.80
2022-10-31T15:44:06.744Z,4.30
2022-10-31T15:46:35.740Z,5.00
2022-10-31T15:49:05.234Z,3.70
2022-10-31T15:51:35.934Z,5.53
2022-10-31T15:54:04.183Z,2.93
2022-10-31T15:56:34.331Z,6.37
2022-10-31T15:59:03.474Z,7.30
2022-10-31T16:01:33.188Z,3.00
2022-10-31T16:04:06.340Z,4.60
2022-10-31T16:06:36.357Z,7.37
2022-10-31T16:09:05.555Z,4.90
2022-10-31T16:11:36.736Z,3.23
2022-10-31T16:14:08.419Z,4.93
2022-10-31T16:16:42.907Z,5.43
2022-10-31T16:19:18.961Z,4.23
2022-10-31T16:21:47.347Z,5.00
2022-10-31T16:24:19.256Z,3.17
2022-10-31T16:26:50.932Z,2.97
2022-10-31T16:29:28.049Z,2.60
2022-10-31T16:31:56.206Z,3.97
2022-10-31T16:34:27.095Z,3.90
2022-10-31T16:36:55.714Z,4.87
2022-10-31T16:39:23.915Z,3.80
2022-10-31T16:41:54.281Z,5.30
2022-10-31T16:44:24.713Z,4.63
2022-10-31T16:47:09.921Z,6.80
2022-10-31T16:49:39.343Z,4.70
2022-10-31T16:52:07.440Z,5.40
2022-10-31T16:54:35.644Z,4.50
2022-10-31T16:57:05.260Z,7.80
2022-10-31T16:59:34.249Z,3.10
2022-10-31T17:02:03.667Z,7.67
2022-10-31T17:04:31.953Z,4.60
2022-10-31T17:07:01.378Z,4.93
2022-10-31T17:09:29.368Z,5.53
2022-10-31T17:11:57.418Z,4.73
2022-10-31T17:14:25.507Z,4.03
2022-10-31T17:16:53.564Z,5.50
2022-10-31T17:19:21.599Z,5.60
2022-10-31T17:21:49.739Z,8.30
2022-10-31T17:24:19.138Z,7.17
2022-10-31T17:26:47.222Z,5.33
2022-10-31T17:29:15.272Z,5.93
2022-10-31T17:31:43.715Z,5.23
2022-10-31T17:34:11.780Z,7.10
2022-10-31T17:36:39.816Z,6.33
2022-10-31T17:39:09.676Z,6.60
2022-10-31T17:41:39.087Z,5.57
2022-10-31T17:44:07.515Z,4.30
2022-10-31T17:46:35.627Z,6.10
2022-10-31T17:49:05.125Z,6.53
2022-10-31T17:51:33.389Z,6.77
2022-10-31T17:54:01.669Z,5.80
2022-10-31T17:56:29.658Z,9.47
2022-10-31T17:58:59.295Z,4.20
2022-10-31T18:01:27.571Z,5.10
2022-10-31T18:03:55.725Z,5.57
2022-10-31T18:06:23.793Z,7.57
2022-10-31T18:08:51.837Z,6.33
2022-10-31T18:11:22.837Z,5.47
2022-10-31T18:13:56.057Z,8.53
2022-10-31T18:16:26.073Z,6.10
2022-10-31T18:18:56.196Z,6.83
2022-10-31T18:21:24.244Z,7.03
2022-10-31T18:23:55.202Z,7.50
2022-10-31T18:26:23.784Z,7.13
2022-10-31T18:28:52.215Z,6.80
2022-10-31T18:31:20.364Z,6.13
2022-10-31T18:36:23.255Z,8.57
2022-10-31T18:38:51.534Z,8.60
2022-10-31T18:41:19.817Z,7.60
2022-10-31T18:43:47.945Z,7.40
2022-10-31T18:46:17.269Z,5.03
2022-10-31T18:48:46.423Z,4.73
2022-10-31T18:51:18.321Z,5.00
2022-10-31T18:53:52.561Z,5.43
2022-10-31T18:56:20.975Z,7.60
2022-10-31T18:58:49.284Z,5.33
2022-10-31T19:01:18.453Z,8.33
2022-10-31T19:03:46.865Z,5.47
2022-10-31T19:06:16.285Z,12.37
2022-10-31T19:08:44.361Z,8.23
2022-10-31T19:11:14.344Z,6.50
2022-10-31T19:13:43.339Z,7.00
2022-10-31T19:16:13.050Z,7.43
2022-10-31T19:18:41.982Z,6.83
2022-10-31T19:21:11.745Z,6.27
2022-10-31T19:23:41.540Z,7.53
2022-10-31T19:26:09.996Z,6.27
2022-10-31T19:28:39.786Z,5.50
2022-10-31T19:31:08.492Z,6.83
2022-10-31T19:33:37.216Z,9.13
2022-10-31T19:36:08.292Z,9.23
2022-10-31T19:38:36.827Z,7.13
2022-10-31T19:41:07.560Z,10.37
2022-10-31T19:43:35.688Z,15.10
2022-10-31T19:46:04.739Z,6.67
2022-10-31T19:48:32.854Z,16.77
2022-10-31T19:51:04.919Z,5.13
2022-10-31T19:53:33.274Z,5.70
